sensor_id;sensor_type;location;lat;lon;timestamp;pressure;altitude;pressure_sealevel;temperature
20289;BMP180;10303;51.960;8.372;2023-02-26T00:01:34;100469.00;;;3.30
20289;BMP180;10303;51.960;8.372;2023-02-26T00:04:04;100478.00;;;3.20
20289;BMP180;10303;51.960;8.372;2023-02-26T00:06:34;100476.00;;;3.20
20289;BMP180;10303;51.960;8.372;2023-02-26T00:09:02;100477.00;;;3.20
20289;BMP180;10303;51.960;8.372;2023-02-26T00:11:28;100483.00;;;3.20
20289;BMP180;10303;51.960;8.372;2023-02-26T00:13:55;100474.00;;;3.20
20289;BMP180;10303;51.960;8.372;2023-02-26T00:16:33;100482.00;;;3.20
20289;BMP180;10303;51.960;8.372;2023-02-26T00:19:03;100487.00;;;3.20
20289;BMP180;10303;51.960;8.372;2023-02-26T00:21:31;100490.00;;;3.20
20289;BMP180;10303;51.960;8.372;2023-02-26T00:23:58;100492.00;;;3.20
20289;BMP180;10303;51.960;8.372;2023-02-26T00:26:27;100500.00;;;3.20
20289;BMP180;10303;51.960;8.372;2023-02-26T00:28:54;100497.00;;;3.20
20289;BMP180;10303;51.960;8.372;2023-02-26T00:31:20;100495.00;;;3.20
20289;BMP180;10303;51.960;8.372;2023-02-26T00:33:52;100507.00;;;3.20
20289;BMP180;10303;51.960;8.372;2023-02-26T00:36:40;100517.00;;;3.10
20289;BMP180;10303;51.960;8.372;2023-02-26T00:41:49;100515.00;;;3.10
20289;BMP180;10303;51.960;8.372;2023-02-26T00:44:15;100514.00;;;3.10
20289;BMP180;10303;51.960;8.372;2023-02-26T00:47:24;100530.00;;;3.00
20289;BMP180;10303;51.960;8.372;2023-02-26T00:50:23;100537.00;;;3.00
20289;BMP180;10303;51.960;8.372;2023-02-26T00:53:28;100525.00;;;3.00
20289;BMP180;10303;51.960;8.372;2023-02-26T00:55:56;100534.00;;;3.00
20289;BMP180;10303;51.960;8.372;2023-02-26T00:58:22;100536.00;;;3.00
20289;BMP180;10303;51.960;8.372;2023-02-26T01:00:47;100539.00;;;3.00
20289;BMP180;10303;51.960;8.372;2023-02-26T01:03:13;100542.00;;;3.00
20289;BMP180;10303;51.960;8.372;2023-02-26T01:05:40;100550.00;;;3.00
20289;BMP180;10303;51.960;8.372;2023-02-26T01:08:41;100547.00;;;3.00
20289;BMP180;10303;51.960;8.372;2023-02-26T01:11:08;100545.00;;;3.00
20289;BMP180;10303;51.960;8.372;2023-02-26T01:13:34;100542.00;;;3.00
20289;BMP180;10303;51.960;8.372;2023-02-26T01:16:12;100554.00;;;3.00
20289;BMP180;10303;51.960;8.372;2023-02-26T01:18:48;100557.00;;;3.00
20289;BMP180;10303;51.960;8.372;2023-02-26T01:21:25;100558.00;;;3.00
20289;BMP180;10303;51.960;8.372;2023-02-26T01:23:53;100561.00;;;3.10
20289;BMP180;10303;51.960;8.372;2023-02-26T01:26:27;100556.00;;;3.10
20289;BMP180;10303;51.960;8.372;2023-02-26T01:28:54;100567.00;;;3.10
20289;BMP180;10303;51.960;8.372;2023-02-26T01:31:48;100568.00;;;3.10
20289;BMP180;10303;51.960;8.372;2023-02-26T01:34:31;100568.00;;;3.10
20289;BMP180;10303;51.960;8.372;2023-02-26T01:40:34;100567.00;;;3.10
20289;BMP180;10303;51.960;8.372;2023-02-26T01:43:19;100574.00;;;3.10
20289;BMP180;10303;51.960;8.372;2023-02-26T01:46:15;100570.00;;;3.10
20289;BMP180;10303;51.960;8.372;2023-02-26T01:48:54;100567.00;;;3.20
20289;BMP180;10303;51.960;8.372;2023-02-26T01:54:12;100572.00;;;3.20
20289;BMP180;10303;51.960;8.372;2023-02-26T01:56:38;100565.00;;;3.20
20289;BMP180;10303;51.960;8.372;2023-02-26T01:59:08;100572.00;;;3.20
20289;BMP180;10303;51.960;8.372;2023-02-26T02:01:39;100570.00;;;3.20
20289;BMP180;10303;51.960;8.372;2023-02-26T02:04:10;100577.00;;;3.20
20289;BMP180;10303;51.960;8.372;2023-02-26T02:06:38;100578.00;;;3.20
20289;BMP180;10303;51.960;8.372;2023-02-26T02:09:06;100587.00;;;3.30
20289;BMP180;10303;51.960;8.372;2023-02-26T02:11:33;100594.00;;;3.30
20289;BMP180;10303;51.960;8.372;2023-02-26T02:20:37;100599.00;;;3.20
20289;BMP180;10303;51.960;8.372;2023-02-26T02:26:13;100586.00;;;3.20
20289;BMP180;10303;51.960;8.372;2023-02-26T02:34:11;100600.00;;;3.10
20289;BMP180;10303;51.960;8.372;2023-02-26T02:37:01;100597.00;;;3.10
20289;BMP180;10303;51.960;8.372;2023-02-26T02:39:43;100602.00;;;3.00
20289;BMP180;10303;51.960;8.372;2023-02-26T02:45:20;100608.00;;;3.00
20289;BMP180;10303;51.960;8.372;2023-02-26T02:47:55;100619.00;;;2.90
20289;BMP180;10303;51.960;8.372;2023-02-26T02:50:33;100621.00;;;2.90
20289;BMP180;10303;51.960;8.372;2023-02-26T02:53:25;100630.00;;;2.90
20289;BMP180;10303;51.960;8.372;2023-02-26T02:56:18;100648.00;;;2.80
20289;BMP180;10303;51.960;8.372;2023-02-26T02:58:54;100642.00;;;2.80
20289;BMP180;10303;51.960;8.372;2023-02-26T03:01:26;100632.00;;;2.80
20289;BMP180;10303;51.960;8.372;2023-02-26T03:04:07;100641.00;;;2.80
20289;BMP180;10303;51.960;8.372;2023-02-26T03:06:36;100650.00;;;2.80
20289;BMP180;10303;51.960;8.372;2023-02-26T03:09:04;100646.00;;;2.70
20289;BMP180;10303;51.960;8.372;2023-02-26T03:11:32;100655.00;;;2.70
20289;BMP180;10303;51.960;8.372;2023-02-26T03:14:00;100655.00;;;2.70
20289;BMP180;10303;51.960;8.372;2023-02-26T03:17:07;100655.00;;;2.70
20289;BMP180;10303;51.960;8.372;2023-02-26T03:19:51;100667.00;;;2.70
20289;BMP180;10303;51.960;8.372;2023-02-26T03:25:25;100667.00;;;2.60
20289;BMP180;10303;51.960;8.372;2023-02-26T03:28:10;100683.00;;;2.70
20289;BMP180;10303;51.960;8.372;2023-02-26T03:31:01;100671.00;;;2.70
20289;BMP180;10303;51.960;8.372;2023-02-26T03:33:59;100684.00;;;2.70
20289;BMP180;10303;51.960;8.372;2023-02-26T03:36:36;100689.00;;;2.70
20289;BMP180;10303;51.960;8.372;2023-02-26T03:39:56;100692.00;;;2.70
20289;BMP180;10303;51.960;8.372;2023-02-26T03:42:45;100696.00;;;2.70
20289;BMP180;10303;51.960;8.372;2023-02-26T03:45:38;100700.00;;;2.70
20289;BMP180;10303;51.960;8.372;2023-02-26T03:48:09;100700.00;;;2.70
20289;BMP180;10303;51.960;8.372;2023-02-26T03:50:46;100713.00;;;2.70
20289;BMP180;10303;51.960;8.372;2023-02-26T03:53:35;100714.00;;;2.70
20289;BMP180;10303;51.960;8.372;2023-02-26T03:56:25;100714.00;;;2.70
20289;BMP180;10303;51.960;8.372;2023-02-26T03:59:14;100720.00;;;2.70
20289;BMP180;10303;51.960;8.372;2023-02-26T04:01:57;100719.00;;;2.60
20289;BMP180;10303;51.960;8.372;2023-02-26T04:04:50;100725.00;;;2.60
20289;BMP180;10303;51.960;8.372;2023-02-26T04:07:19;100722.00;;;2.60
20289;BMP180;10303;51.960;8.372;2023-02-26T04:09:49;100722.00;;;2.60
20289;BMP180;10303;51.960;8.372;2023-02-26T04:12:23;100723.00;;;2.50
20289;BMP180;10303;51.960;8.372;2023-02-26T04:14:52;100739.00;;;2.50
20289;BMP180;10303;51.960;8.372;2023-02-26T04:17:18;100742.00;;;2.50
20289;BMP180;10303;51.960;8.372;2023-02-26T04:19:44;100756.00;;;2.50
20289;BMP180;10303;51.960;8.372;2023-02-26T04:22:11;100752.00;;;2.50
20289;BMP180;10303;51.960;8.372;2023-02-26T04:24:37;100755.00;;;2.40
20289;BMP180;10303;51.960;8.372;2023-02-26T04:27:03;100754.00;;;2.40
20289;BMP180;10303;51.960;8.372;2023-02-26T04:29:30;100764.00;;;2.40
20289;BMP180;10303;51.960;8.372;2023-02-26T04:31:56;100760.00;;;2.40
20289;BMP180;10303;51.960;8.372;2023-02-26T04:34:22;100773.00;;;2.40
20289;BMP180;10303;51.960;8.372;2023-02-26T04:36:49;100770.00;;;2.40
20289;BMP180;10303;51.960;8.372;2023-02-26T04:39:15;100774.00;;;2.40
20289;BMP180;10303;51.960;8.372;2023-02-26T04:41:41;100773.00;;;2.40
20289;BMP180;10303;51.960;8.372;2023-02-26T04:44:07;100766.00;;;2.40
20289;BMP180;10303;51.960;8.372;2023-02-26T04:46:35;100777.00;;;2.30
20289;BMP180;10303;51.960;8.372;2023-02-26T04:49:01;100779.00;;;2.30
20289;BMP180;10303;51.960;8.372;2023-02-26T04:51:27;100778.00;;;2.30
20289;BMP180;10303;51.960;8.372;2023-02-26T04:53:53;100776.00;;;2.30
20289;BMP180;10303;51.960;8.372;2023-02-26T04:56:20;100783.00;;;2.30
20289;BMP180;10303;51.960;8.372;2023-02-26T04:58:46;100789.00;;;2.30
20289;BMP180;10303;51.960;8.372;2023-02-26T05:01:17;100787.00;;;2.30
20289;BMP180;10303;51.960;8.372;2023-02-26T05:03:43;100788.00;;;2.30
20289;BMP180;10303;51.960;8.372;2023-02-26T05:06:09;100792.00;;;2.30
20289;BMP180;10303;51.960;8.372;2023-02-26T05:08:36;100794.00;;;2.30
20289;BMP180;10303;51.960;8.372;2023-02-26T05:11:07;100790.00;;;2.30
20289;BMP180;10303;51.960;8.372;2023-02-26T05:13:33;100799.00;;;2.30
20289;BMP180;10303;51.960;8.372;2023-02-26T05:16:00;100808.00;;;2.30
20289;BMP180;10303;51.960;8.372;2023-02-26T05:18:26;100805.00;;;2.30
20289;BMP180;10303;51.960;8.372;2023-02-26T05:20:55;100805.00;;;2.30
20289;BMP180;10303;51.960;8.372;2023-02-26T05:23:21;100805.00;;;2.30
20289;BMP180;10303;51.960;8.372;2023-02-26T05:25:48;100811.00;;;2.40
20289;BMP180;10303;51.960;8.372;2023-02-26T05:28:16;100818.00;;;2.40
20289;BMP180;10303;51.960;8.372;2023-02-26T05:30:42;100815.00;;;2.40
20289;BMP180;10303;51.960;8.372;2023-02-26T05:33:10;100826.00;;;2.40
20289;BMP180;10303;51.960;8.372;2023-02-26T05:35:36;100819.00;;;2.40
20289;BMP180;10303;51.960;8.372;2023-02-26T05:38:02;100816.00;;;2.40
20289;BMP180;10303;51.960;8.372;2023-02-26T05:40:28;100822.00;;;2.40
20289;BMP180;10303;51.960;8.372;2023-02-26T05:42:53;100833.00;;;2.40
20289;BMP180;10303;51.960;8.372;2023-02-26T05:45:19;100837.00;;;2.40
20289;BMP180;10303;51.960;8.372;2023-02-26T05:47:45;100844.00;;;2.40
20289;BMP180;10303;51.960;8.372;2023-02-26T05:50:12;100829.00;;;2.40
20289;BMP180;10303;51.960;8.372;2023-02-26T05:52:38;100836.00;;;2.40
20289;BMP180;10303;51.960;8.372;2023-02-26T05:55:04;100860.00;;;2.40
20289;BMP180;10303;51.960;8.372;2023-02-26T05:57:30;100853.00;;;2.40
20289;BMP180;10303;51.960;8.372;2023-02-26T05:59:56;100867.00;;;2.40
20289;BMP180;10303;51.960;8.372;2023-02-26T06:02:22;100872.00;;;2.50
20289;BMP180;10303;51.960;8.372;2023-02-26T06:04:48;100870.00;;;2.50
20289;BMP180;10303;51.960;8.372;2023-02-26T06:07:14;100880.00;;;2.50
20289;BMP180;10303;51.960;8.372;2023-02-26T06:09:40;100890.00;;;2.50
20289;BMP180;10303;51.960;8.372;2023-02-26T06:12:07;100894.00;;;2.50
20289;BMP180;10303;51.960;8.372;2023-02-26T06:14:33;100889.00;;;2.50
20289;BMP180;10303;51.960;8.372;2023-02-26T06:17:03;100904.00;;;2.50
20289;BMP180;10303;51.960;8.372;2023-02-26T06:19:28;100908.00;;;2.50
20289;BMP180;10303;51.960;8.372;2023-02-26T06:21:54;100919.00;;;2.40
20289;BMP180;10303;51.960;8.372;2023-02-26T06:24:21;100914.00;;;2.40
20289;BMP180;10303;51.960;8.372;2023-02-26T06:26:47;100938.00;;;2.40
20289;BMP180;10303;51.960;8.372;2023-02-26T06:29:14;100927.00;;;2.30
20289;BMP180;10303;51.960;8.372;2023-02-26T06:31:40;100927.00;;;2.30
20289;BMP180;10303;51.960;8.372;2023-02-26T06:34:06;100936.00;;;2.30
20289;BMP180;10303;51.960;8.372;2023-02-26T06:36:32;100929.00;;;2.20
20289;BMP180;10303;51.960;8.372;2023-02-26T06:38:58;100941.00;;;2.20
20289;BMP180;10303;51.960;8.372;2023-02-26T06:41:24;100951.00;;;2.20
20289;BMP180;10303;51.960;8.372;2023-02-26T06:43:50;100948.00;;;2.20
20289;BMP180;10303;51.960;8.372;2023-02-26T06:46:16;100943.00;;;2.10
20289;BMP180;10303;51.960;8.372;2023-02-26T06:48:42;100953.00;;;2.10
20289;BMP180;10303;51.960;8.372;2023-02-26T06:51:08;100960.00;;;2.10
20289;BMP180;10303;51.960;8.372;2023-02-26T06:53:34;100963.00;;;2.10
20289;BMP180;10303;51.960;8.372;2023-02-26T06:56:00;100974.00;;;2.10
20289;BMP180;10303;51.960;8.372;2023-02-26T06:58:26;100978.00;;;2.10
20289;BMP180;10303;51.960;8.372;2023-02-26T07:00:52;100983.00;;;2.10
20289;BMP180;10303;51.960;8.372;2023-02-26T07:03:18;100982.00;;;2.10
20289;BMP180;10303;51.960;8.372;2023-02-26T07:05:45;100980.00;;;2.10
20289;BMP180;10303;51.960;8.372;2023-02-26T07:08:12;100980.00;;;2.10
20289;BMP180;10303;51.960;8.372;2023-02-26T07:10:39;101003.00;;;2.10
20289;BMP180;10303;51.960;8.372;2023-02-26T07:13:05;100991.00;;;2.10
20289;BMP180;10303;51.960;8.372;2023-02-26T07:15:32;100988.00;;;2.10
20289;BMP180;10303;51.960;8.372;2023-02-26T07:17:58;100989.00;;;2.10
20289;BMP180;10303;51.960;8.372;2023-02-26T07:20:26;100992.00;;;2.10
20289;BMP180;10303;51.960;8.372;2023-02-26T07:22:56;101003.00;;;2.20
20289;BMP180;10303;51.960;8.372;2023-02-26T07:25:34;101008.00;;;2.20
20289;BMP180;10303;51.960;8.372;2023-02-26T07:28:06;101003.00;;;2.20
20289;BMP180;10303;51.960;8.372;2023-02-26T07:30:32;101010.00;;;2.20
20289;BMP180;10303;51.960;8.372;2023-02-26T07:33:01;101006.00;;;2.20
20289;BMP180;10303;51.960;8.372;2023-02-26T07:35:30;101003.00;;;2.30
20289;BMP180;10303;51.960;8.372;2023-02-26T07:37:56;101013.00;;;2.30
20289;BMP180;10303;51.960;8.372;2023-02-26T07:40:21;101018.00;;;2.30
20289;BMP180;10303;51.960;8.372;2023-02-26T07:42:47;101013.00;;;2.30
20289;BMP180;10303;51.960;8.372;2023-02-26T07:45:13;101026.00;;;2.30
20289;BMP180;10303;51.960;8.372;2023-02-26T07:47:43;101031.00;;;2.40
20289;BMP180;10303;51.960;8.372;2023-02-26T07:50:10;101038.00;;;2.40
20289;BMP180;10303;51.960;8.372;2023-02-26T07:52:36;101043.00;;;2.50
20289;BMP180;10303;51.960;8.372;2023-02-26T07:55:02;101050.00;;;2.50
20289;BMP180;10303;51.960;8.372;2023-02-26T07:57:30;101047.00;;;2.50
20289;BMP180;10303;51.960;8.372;2023-02-26T08:00:00;101064.00;;;2.60
20289;BMP180;10303;51.960;8.372;2023-02-26T08:02:26;101064.00;;;2.60
20289;BMP180;10303;51.960;8.372;2023-02-26T08:04:52;101069.00;;;2.60
20289;BMP180;10303;51.960;8.372;2023-02-26T08:07:18;101069.00;;;2.70
20289;BMP180;10303;51.960;8.372;2023-02-26T08:09:44;101074.00;;;2.70
20289;BMP180;10303;51.960;8.372;2023-02-26T08:12:10;101073.00;;;2.80
20289;BMP180;10303;51.960;8.372;2023-02-26T08:14:37;101080.00;;;2.80
20289;BMP180;10303;51.960;8.372;2023-02-26T08:17:05;101086.00;;;2.90
20289;BMP180;10303;51.960;8.372;2023-02-26T08:19:31;101081.00;;;3.00
20289;BMP180;10303;51.960;8.372;2023-02-26T08:21:57;101095.00;;;3.00
20289;BMP180;10303;51.960;8.372;2023-02-26T08:24:25;101086.00;;;3.10
20289;BMP180;10303;51.960;8.372;2023-02-26T08:26:59;101093.00;;;3.10
20289;BMP180;10303;51.960;8.372;2023-02-26T08:29:30;101106.00;;;3.20
20289;BMP180;10303;51.960;8.372;2023-02-26T08:31:57;101105.00;;;3.20
20289;BMP180;10303;51.960;8.372;2023-02-26T08:34:26;101111.00;;;3.30
20289;BMP180;10303;51.960;8.372;2023-02-26T08:36:55;101109.00;;;3.40
20289;BMP180;10303;51.960;8.372;2023-02-26T08:39:21;101125.00;;;3.40
20289;BMP180;10303;51.960;8.372;2023-02-26T08:41:47;101128.00;;;3.50
20289;BMP180;10303;51.960;8.372;2023-02-26T08:44:12;101133.00;;;3.60
20289;BMP180;10303;51.960;8.372;2023-02-26T08:46:38;101118.00;;;3.60
20289;BMP180;10303;51.960;8.372;2023-02-26T08:49:04;101135.00;;;3.70
20289;BMP180;10303;51.960;8.372;2023-02-26T08:51:30;101126.00;;;3.80
20289;BMP180;10303;51.960;8.372;2023-02-26T08:53:56;101139.00;;;3.90
20289;BMP180;10303;51.960;8.372;2023-02-26T08:56:22;101141.00;;;3.90
20289;BMP180;10303;51.960;8.372;2023-02-26T08:58:48;101151.00;;;4.10
20289;BMP180;10303;51.960;8.372;2023-02-26T09:01:14;101146.00;;;4.20
20289;BMP180;10303;51.960;8.372;2023-02-26T09:03:40;101156.00;;;4.40
20289;BMP180;10303;51.960;8.372;2023-02-26T09:06:06;101159.00;;;4.50
20289;BMP180;10303;51.960;8.372;2023-02-26T09:08:32;101155.00;;;4.70
20289;BMP180;10303;51.960;8.372;2023-02-26T09:11:02;101169.00;;;4.90
20289;BMP180;10303;51.960;8.372;2023-02-26T09:13:29;101172.00;;;5.20
20289;BMP180;10303;51.960;8.372;2023-02-26T09:15:55;101184.00;;;5.50
20289;BMP180;10303;51.960;8.372;2023-02-26T09:18:22;101194.00;;;5.70
20289;BMP180;10303;51.960;8.372;2023-02-26T09:20:48;101180.00;;;5.80
20289;BMP180;10303;51.960;8.372;2023-02-26T09:23:14;101187.00;;;6.00
20289;BMP180;10303;51.960;8.372;2023-02-26T09:25:40;101195.00;;;6.00
20289;BMP180;10303;51.960;8.372;2023-02-26T09:28:06;101185.00;;;6.10
20289;BMP180;10303;51.960;8.372;2023-02-26T09:30:32;101202.00;;;6.30
20289;BMP180;10303;51.960;8.372;2023-02-26T09:32:58;101198.00;;;6.40
20289;BMP180;10303;51.960;8.372;2023-02-26T09:35:25;101208.00;;;6.50
20289;BMP180;10303;51.960;8.372;2023-02-26T09:37:51;101204.00;;;6.60
20289;BMP180;10303;51.960;8.372;2023-02-26T09:40:39;101209.00;;;6.80
20289;BMP180;10303;51.960;8.372;2023-02-26T09:43:47;101212.00;;;7.10
20289;BMP180;10303;51.960;8.372;2023-02-26T09:49:22;101218.00;;;7.80
20289;BMP180;10303;51.960;8.372;2023-02-26T09:51:56;101206.00;;;8.00
20289;BMP180;10303;51.960;8.372;2023-02-26T09:54:30;101212.00;;;8.20
20289;BMP180;10303;51.960;8.372;2023-02-26T09:57:00;101221.00;;;8.30
20289;BMP180;10303;51.960;8.372;2023-02-26T09:59:32;101209.00;;;8.40
20289;BMP180;10303;51.960;8.372;2023-02-26T10:02:06;101215.00;;;8.60
20289;BMP180;10303;51.960;8.372;2023-02-26T10:05:08;101221.00;;;8.80
20289;BMP180;10303;51.960;8.372;2023-02-26T10:13:45;101238.00;;;9.40
20289;BMP180;10303;51.960;8.372;2023-02-26T10:16:21;101236.00;;;9.50
20289;BMP180;10303;51.960;8.372;2023-02-26T10:19:19;101247.00;;;9.50
20289;BMP180;10303;51.960;8.372;2023-02-26T10:21:56;101237.00;;;9.60
20289;BMP180;10303;51.960;8.372;2023-02-26T10:24:48;101232.00;;;9.80
20289;BMP180;10303;51.960;8.372;2023-02-26T10:27:22;101245.00;;;9.80
20289;BMP180;10303;51.960;8.372;2023-02-26T10:35:52;101257.00;;;10.10
20289;BMP180;10303;51.960;8.372;2023-02-26T10:38:25;101261.00;;;10.20
20289;BMP180;10303;51.960;8.372;2023-02-26T10:41:13;101258.00;;;10.20
20289;BMP180;10303;51.960;8.372;2023-02-26T10:43:53;101263.00;;;10.30
20289;BMP180;10303;51.960;8.372;2023-02-26T10:46:45;101267.00;;;10.40
20289;BMP180;10303;51.960;8.372;2023-02-26T10:49:46;101266.00;;;10.40
20289;BMP180;10303;51.960;8.372;2023-02-26T10:52:23;101279.00;;;10.40
20289;BMP180;10303;51.960;8.372;2023-02-26T10:55:26;101270.00;;;10.50
20289;BMP180;10303;51.960;8.372;2023-02-26T10:58:20;101273.00;;;10.50
20289;BMP180;10303;51.960;8.372;2023-02-26T11:00:50;101271.00;;;10.70
20289;BMP180;10303;51.960;8.372;2023-02-26T11:03:35;101277.00;;;10.80
20289;BMP180;10303;51.960;8.372;2023-02-26T11:06:04;101276.00;;;11.00
20289;BMP180;10303;51.960;8.372;2023-02-26T11:08:44;101284.00;;;11.00
20289;BMP180;10303;51.960;8.372;2023-02-26T11:11:41;101277.00;;;11.10
20289;BMP180;10303;51.960;8.372;2023-02-26T11:14:09;101277.00;;;11.40
20289;BMP180;10303;51.960;8.372;2023-02-26T11:16:46;101285.00;;;11.50
20289;BMP180;10303;51.960;8.372;2023-02-26T11:19:14;101283.00;;;11.70
20289;BMP180;10303;51.960;8.372;2023-02-26T11:21:44;101279.00;;;11.80
20289;BMP180;10303;51.960;8.372;2023-02-26T11:24:33;101285.00;;;11.90
20289;BMP180;10303;51.960;8.372;2023-02-26T11:27:02;101277.00;;;12.00
20289;BMP180;10303;51.960;8.372;2023-02-26T11:29:37;101268.00;;;12.20
20289;BMP180;10303;51.960;8.372;2023-02-26T11:32:06;101280.00;;;12.30
20289;BMP180;10303;51.960;8.372;2023-02-26T11:34:48;101279.00;;;12.40
20289;BMP180;10303;51.960;8.372;2023-02-26T11:37:22;101292.00;;;12.60
20289;BMP180;10303;51.960;8.372;2023-02-26T11:39:59;101281.00;;;12.70
20289;BMP180;10303;51.960;8.372;2023-02-26T11:42:26;101270.00;;;12.90
20289;BMP180;10303;51.960;8.372;2023-02-26T11:44:53;101281.00;;;12.90
20289;BMP180;10303;51.960;8.372;2023-02-26T11:47:25;101281.00;;;12.90
20289;BMP180;10303;51.960;8.372;2023-02-26T11:50:00;101292.00;;;12.90
20289;BMP180;10303;51.960;8.372;2023-02-26T11:52:43;101294.00;;;12.80
20289;BMP180;10303;51.960;8.372;2023-02-26T11:55:28;101279.00;;;12.70
20289;BMP180;10303;51.960;8.372;2023-02-26T11:57:55;101286.00;;;12.80
20289;BMP180;10303;51.960;8.372;2023-02-26T12:00:35;101284.00;;;12.90
20289;BMP180;10303;51.960;8.372;2023-02-26T12:03:14;101282.00;;;13.00
20289;BMP180;10303;51.960;8.372;2023-02-26T12:05:40;101278.00;;;13.10
20289;BMP180;10303;51.960;8.372;2023-02-26T12:08:30;101284.00;;;13.30
20289;BMP180;10303;51.960;8.372;2023-02-26T12:16:58;101286.00;;;13.80
20289;BMP180;10303;51.960;8.372;2023-02-26T12:19:54;101286.00;;;14.10
20289;BMP180;10303;51.960;8.372;2023-02-26T12:28:34;101282.00;;;14.40
20289;BMP180;10303;51.960;8.372;2023-02-26T12:54:05;101289.00;;;14.10
20289;BMP180;10303;51.960;8.372;2023-02-26T13:09:00;101311.00;;;13.60
20289;BMP180;10303;51.960;8.372;2023-02-26T13:14:44;101300.00;;;12.90
20289;BMP180;10303;51.960;8.372;2023-02-26T13:17:57;101299.00;;;12.70
20289;BMP180;10303;51.960;8.372;2023-02-26T13:20:28;101306.00;;;12.70
20289;BMP180;10303;51.960;8.372;2023-02-26T13:23:08;101299.00;;;12.60
20289;BMP180;10303;51.960;8.372;2023-02-26T13:25:40;101299.00;;;12.50
20289;BMP180;10303;51.960;8.372;2023-02-26T13:31:00;101295.00;;;12.50
20289;BMP180;10303;51.960;8.372;2023-02-26T13:33:31;101296.00;;;12.40
20289;BMP180;10303;51.960;8.372;2023-02-26T13:36:00;101296.00;;;12.30
20289;BMP180;10303;51.960;8.372;2023-02-26T13:48:10;101287.00;;;11.90
20289;BMP180;10303;51.960;8.372;2023-02-26T13:59:03;101282.00;;;11.30
20289;BMP180;10303;51.960;8.372;2023-02-26T14:01:52;101277.00;;;11.10
20289;BMP180;10303;51.960;8.372;2023-02-26T14:04:25;101280.00;;;11.00
20289;BMP180;10303;51.960;8.372;2023-02-26T14:07:14;101275.00;;;10.80
20289;BMP180;10303;51.960;8.372;2023-02-26T14:09:46;101264.00;;;10.90
20289;BMP180;10303;51.960;8.372;2023-02-26T14:12:36;101270.00;;;10.80
20289;BMP180;10303;51.960;8.372;2023-02-26T14:17:39;101266.00;;;10.80
20289;BMP180;10303;51.960;8.372;2023-02-26T14:20:28;101282.00;;;10.70
20289;BMP180;10303;51.960;8.372;2023-02-26T14:23:16;101271.00;;;10.60
20289;BMP180;10303;51.960;8.372;2023-02-26T14:25:52;101274.00;;;10.60
20289;BMP180;10303;51.960;8.372;2023-02-26T14:31:17;101278.00;;;10.50
20289;BMP180;10303;51.960;8.372;2023-02-26T14:36:39;101281.00;;;10.50
20289;BMP180;10303;51.960;8.372;2023-02-26T14:39:16;101285.00;;;10.50
20289;BMP180;10303;51.960;8.372;2023-02-26T14:41:45;101277.00;;;10.50
20289;BMP180;10303;51.960;8.372;2023-02-26T14:44:33;101293.00;;;10.40
20289;BMP180;10303;51.960;8.372;2023-02-26T14:47:01;101280.00;;;10.50
20289;BMP180;10303;51.960;8.372;2023-02-26T14:49:38;101295.00;;;10.40
20289;BMP180;10303;51.960;8.372;2023-02-26T14:53:06;101290.00;;;10.30
20289;BMP180;10303;51.960;8.372;2023-02-26T14:55:46;101286.00;;;10.20
20289;BMP180;10303;51.960;8.372;2023-02-26T15:01:41;101293.00;;;10.10
20289;BMP180;10303;51.960;8.372;2023-02-26T15:04:43;101288.00;;;10.10
20289;BMP180;10303;51.960;8.372;2023-02-26T15:19:42;101298.00;;;10.10
20289;BMP180;10303;51.960;8.372;2023-02-26T15:22:27;101296.00;;;10.10
20289;BMP180;10303;51.960;8.372;2023-02-26T15:24:55;101302.00;;;10.00
20289;BMP180;10303;51.960;8.372;2023-02-26T15:27:21;101297.00;;;10.00
20289;BMP180;10303;51.960;8.372;2023-02-26T15:29:49;101286.00;;;10.00
20289;BMP180;10303;51.960;8.372;2023-02-26T15:32:27;101296.00;;;10.00
20289;BMP180;10303;51.960;8.372;2023-02-26T15:35:20;101301.00;;;9.90
20289;BMP180;10303;51.960;8.372;2023-02-26T15:37:59;101315.00;;;9.90
20289;BMP180;10303;51.960;8.372;2023-02-26T15:40:36;101309.00;;;9.90
20289;BMP180;10303;51.960;8.372;2023-02-26T15:43:08;101307.00;;;9.80
20289;BMP180;10303;51.960;8.372;2023-02-26T15:45:42;101314.00;;;9.70
20289;BMP180;10303;51.960;8.372;2023-02-26T15:48:19;101307.00;;;9.60
20289;BMP180;10303;51.960;8.372;2023-02-26T15:50:53;101321.00;;;9.50
20289;BMP180;10303;51.960;8.372;2023-02-26T15:54:03;101324.00;;;9.40
20289;BMP180;10303;51.960;8.372;2023-02-26T15:56:33;101327.00;;;9.40
20289;BMP180;10303;51.960;8.372;2023-02-26T15:59:16;101320.00;;;9.40
20289;BMP180;10303;51.960;8.372;2023-02-26T16:01:43;101320.00;;;9.40
20289;BMP180;10303;51.960;8.372;2023-02-26T16:04:17;101317.00;;;9.40
20289;BMP180;10303;51.960;8.372;2023-02-26T16:06:55;101327.00;;;9.40
20289;BMP180;10303;51.960;8.372;2023-02-26T16:09:37;101316.00;;;9.30
20289;BMP180;10303;51.960;8.372;2023-02-26T16:12:24;101318.00;;;9.20
20289;BMP180;10303;51.960;8.372;2023-02-26T16:15:00;101333.00;;;9.10
20289;BMP180;10303;51.960;8.372;2023-02-26T16:17:36;101328.00;;;9.10
20289;BMP180;10303;51.960;8.372;2023-02-26T16:20:13;101322.00;;;9.00
20289;BMP180;10303;51.960;8.372;2023-02-26T16:22:54;101328.00;;;8.90
20289;BMP180;10303;51.960;8.372;2023-02-26T16:25:43;101327.00;;;8.70
20289;BMP180;10303;51.960;8.372;2023-02-26T16:28:35;101339.00;;;8.60
20289;BMP180;10303;51.960;8.372;2023-02-26T16:31:04;101335.00;;;8.60
20289;BMP180;10303;51.960;8.372;2023-02-26T16:33:34;101338.00;;;8.50
20289;BMP180;10303;51.960;8.372;2023-02-26T16:36:13;101334.00;;;8.40
20289;BMP180;10303;51.960;8.372;2023-02-26T16:38:50;101337.00;;;8.30
20289;BMP180;10303;51.960;8.372;2023-02-26T16:41:25;101347.00;;;8.30
20289;BMP180;10303;51.960;8.372;2023-02-26T16:43:56;101338.00;;;8.20
20289;BMP180;10303;51.960;8.372;2023-02-26T16:46:42;101358.00;;;8.20
20289;BMP180;10303;51.960;8.372;2023-02-26T16:49:24;101366.00;;;8.10
20289;BMP180;10303;51.960;8.372;2023-02-26T16:51:52;101364.00;;;8.10
20289;BMP180;10303;51.960;8.372;2023-02-26T16:54:30;101363.00;;;8.00
20289;BMP180;10303;51.960;8.372;2023-02-26T16:57:07;101370.00;;;7.90
20289;BMP180;10303;51.960;8.372;2023-02-26T16:59:39;101374.00;;;7.90
20289;BMP180;10303;51.960;8.372;2023-02-26T17:02:19;101375.00;;;7.80
20289;BMP180;10303;51.960;8.372;2023-02-26T17:04:53;101384.00;;;7.70